createdAt,value
2022-09-06T00:00:17.485Z,68.78
2022-09-06T00:01:17.740Z,68.78
2022-09-06T00:02:17.482Z,68.78
2022-09-06T00:03:17.381Z,68.68
2022-09-06T00:04:17.976Z,68.68
2022-09-06T00:05:18.873Z,68.68
2022-09-06T00:06:17.500Z,68.68
2022-09-06T00:07:18.826Z,68.68
2022-09-06T00:08:17.340Z,68.68
2022-09-06T00:09:17.302Z,68.78
2022-09-06T00:10:17.282Z,68.91
2022-09-06T00:11:17.303Z,68.91
2022-09-06T00:12:17.251Z,69.01
2022-09-06T00:13:17.339Z,69.01
2022-09-06T00:14:17.257Z,68.91
2022-09-06T00:15:17.276Z,68.91
2022-09-06T00:16:17.297Z,68.81
2022-09-06T00:17:17.247Z,69.01
2022-09-06T00:18:17.984Z,68.81
2022-09-06T00:19:17.206Z,68.81
2022-09-06T00:20:17.166Z,69.01
2022-09-06T00:21:17.239Z,69.01
2022-09-06T00:22:17.150Z,69.01
2022-09-06T00:23:17.184Z,69.01
2022-09-06T00:24:17.408Z,68.91
2022-09-06T00:25:17.416Z,69.01
2022-09-06T00:26:18.238Z,68.91
2022-09-06T00:27:18.139Z,68.91
2022-09-06T00:28:17.047Z,68.81
2022-09-06T00:29:17.040Z,68.81
2022-09-06T00:30:17.176Z,68.91
2022-09-06T00:31:18.298Z,68.91
2022-09-06T00:32:17.030Z,68.91
2022-09-06T00:33:17.077Z,69.01
2022-09-06T00:34:16.999Z,68.91
2022-09-06T00:35:17.032Z,69.05
2022-09-06T00:36:17.012Z,69.25
2022-09-06T00:37:16.993Z,69.05
2022-09-06T00:38:17.212Z,69.05
2022-09-06T00:39:16.904Z,69.05
2022-09-06T00:40:16.894Z,69.15
2022-09-06T00:41:17.022Z,69.05
2022-09-06T00:42:16.911Z,69.05
2022-09-06T00:43:16.951Z,69.05
2022-09-06T00:44:16.975Z,69.05
2022-09-06T00:45:16.891Z,68.95
2022-09-06T00:46:17.041Z,68.95
2022-09-06T00:47:16.853Z,68.85
2022-09-06T00:48:16.836Z,68.85
2022-09-06T00:49:16.817Z,68.74
2022-09-06T00:50:16.754Z,68.74
2022-09-06T00:51:17.427Z,68.71
2022-09-06T00:52:16.806Z,68.65
2022-09-06T00:53:17.022Z,68.65
2022-09-06T00:54:16.738Z,68.54
2022-09-06T00:55:16.975Z,68.41
2022-09-06T00:56:16.758Z,68.21
2022-09-06T00:57:16.907Z,68.21
2022-09-06T00:58:17.018Z,68.21
2022-09-06T00:59:16.689Z,68.11
2022-09-06T01:00:16.678Z,68.11
2022-09-06T01:01:16.783Z,68.21
2022-09-06T01:02:16.691Z,68.21
2022-09-06T01:03:16.636Z,68.31
2022-09-06T01:04:17.581Z,68.21
2022-09-06T01:05:16.631Z,68.31
2022-09-06T01:06:16.675Z,68.21
2022-09-06T01:07:16.571Z,68.24
2022-09-06T01:08:16.860Z,68.21
2022-09-06T01:09:16.543Z,68.11
2022-09-06T01:10:16.508Z,68.34
2022-09-06T01:11:16.521Z,68.34
2022-09-06T01:12:16.494Z,68.34
2022-09-06T01:13:16.476Z,68.34
2022-09-06T01:14:16.474Z,68.54
2022-09-06T01:15:16.931Z,68.54
2022-09-06T01:16:16.554Z,68.44
2022-09-06T01:17:17.451Z,68.44
2022-09-06T01:18:16.391Z,68.44
2022-09-06T01:19:16.420Z,68.54
2022-09-06T01:20:16.466Z,68.54
2022-09-06T01:21:16.385Z,68.54
2022-09-06T01:22:17.464Z,68.54
2022-09-06T01:23:16.417Z,68.54
2022-09-06T01:24:16.356Z,68.57
2022-09-06T01:25:16.486Z,68.48
2022-09-06T01:26:16.325Z,68.48
2022-09-06T01:27:16.310Z,68.44
2022-09-06T01:28:16.365Z,68.44
2022-09-06T01:29:16.271Z,68.34
2022-09-06T01:30:17.730Z,68.14
2022-09-06T01:31:16.404Z,68.14
2022-09-06T01:32:16.252Z,68.24
2022-09-06T01:33:16.219Z,68.04
2022-09-06T01:34:16.271Z,68.04
2022-09-06T01:35:16.200Z,67.94
2022-09-06T01:36:17.658Z,67.84
2022-09-06T01:37:16.158Z,67.74
2022-09-06T01:38:16.210Z,67.74
2022-09-06T01:39:16.125Z,67.74
2022-09-06T01:40:16.133Z,67.74
2022-09-06T01:41:16.111Z,67.63
2022-09-06T01:42:16.099Z,67.54
2022-09-06T01:43:16.102Z,67.63
2022-09-06T01:44:16.063Z,67.63
2022-09-06T01:45:16.054Z,67.43
2022-09-06T01:46:16.107Z,67.43
2022-09-06T01:47:17.497Z,67.43
2022-09-06T01:48:16.045Z,67.43
2022-09-06T01:49:16.492Z,67.43
2022-09-06T01:50:16.006Z,67.43
2022-09-06T01:51:16.158Z,67.33
2022-09-06T01:52:16.023Z,67.13
2022-09-06T01:53:15.968Z,67.23
2022-09-06T01:54:16.008Z,67.33
2022-09-06T01:55:15.915Z,67.33
2022-09-06T01:56:16.146Z,67.23
2022-09-06T01:57:15.907Z,67.23
2022-09-06T01:58:17.002Z,67.13
2022-09-06T01:59:16.936Z,67.13
2022-09-06T02:00:16.007Z,67.13
2022-09-06T02:01:15.908Z,67.03
2022-09-06T02:02:16.006Z,67.03
2022-09-06T02:03:15.813Z,66.93
2022-09-06T02:04:15.875Z,67.07
2022-09-06T02:05:15.812Z,67.07
2022-09-06T02:06:15.773Z,67.07
2022-09-06T02:07:15.796Z,67.07
2022-09-06T02:08:15.831Z,66.96
2022-09-06T02:09:15.767Z,66.86
2022-09-06T02:10:15.982Z,66.96
2022-09-06T02:11:15.731Z,66.96
2022-09-06T02:12:15.720Z,66.86
2022-09-06T02:13:15.750Z,66.96
2022-09-06T02:14:15.707Z,66.96
2022-09-06T02:15:15.735Z,67.07
2022-09-06T02:16:15.699Z,66.86
2022-09-06T02:17:15.695Z,66.86
2022-09-06T02:18:15.642Z,66.86
2022-09-06T02:19:16.059Z,66.86
2022-09-06T02:20:16.511Z,66.96
2022-09-06T02:21:15.607Z,66.96
2022-09-06T02:22:15.745Z,66.96
2022-09-06T02:23:15.587Z,66.86
2022-09-06T02:24:15.567Z,66.96
2022-09-06T02:25:15.587Z,66.86
2022-09-06T02:26:15.717Z,66.99
2022-09-06T02:27:15.522Z,66.99
2022-09-06T02:28:15.586Z,66.99
2022-09-06T02:29:15.559Z,66.89
2022-09-06T02:30:15.506Z,66.89
2022-09-06T02:31:15.515Z,66.89
2022-09-06T02:32:15.439Z,66.79
2022-09-06T02:33:15.950Z,66.69
2022-09-06T02:34:15.482Z,66.59
2022-09-06T02:35:15.431Z,66.59
2022-09-06T02:36:15.491Z,66.49
2022-09-06T02:37:15.368Z,66.49
2022-09-06T02:38:15.375Z,66.39
2022-09-06T02:39:15.483Z,66.39
2022-09-06T02:40:15.534Z,66.29
2022-09-06T02:41:16.539Z,66.39
2022-09-06T02:42:15.339Z,66.29
2022-09-06T02:43:16.143Z,66.19
2022-09-06T02:44:15.402Z,66.19
2022-09-06T02:45:15.302Z,66.08
2022-09-06T02:46:15.306Z,65.99
2022-09-06T02:47:15.512Z,65.88
2022-09-06T02:48:15.304Z,65.78
2022-09-06T02:49:15.300Z,65.68
2022-09-06T02:50:16.184Z,65.68
2022-09-06T02:51:15.226Z,65.68
2022-09-06T02:52:15.995Z,65.58
2022-09-06T02:53:15.316Z,65.68
2022-09-06T02:54:15.264Z,65.58
2022-09-06T02:55:15.206Z,65.58
2022-09-06T02:56:15.325Z,65.38
2022-09-06T02:57:15.154Z,65.38
2022-09-06T02:58:15.102Z,65.48
2022-09-06T02:59:15.164Z,65.48
2022-09-06T03:00:15.065Z,65.48
2022-09-06T03:01:15.097Z,65.38
2022-09-06T03:02:15.148Z,65.38
2022-09-06T03:03:15.435Z,65.48
2022-09-06T03:04:15.339Z,65.38
2022-09-06T03:05:15.108Z,65.38
2022-09-06T03:06:15.089Z,65.38
2022-09-06T03:07:14.988Z,65.38
2022-09-06T03:08:14.973Z,65.28
2022-09-06T03:09:15.897Z,65.28
2022-09-06T03:10:14.994Z,65.38
2022-09-06T03:11:15.011Z,65.38
2022-09-06T03:12:14.974Z,65.28
2022-09-06T03:13:14.908Z,65.18
2022-09-06T03:14:14.927Z,65.28
2022-09-06T03:15:14.917Z,65.18
2022-09-06T03:16:15.525Z,65.08
2022-09-06T03:17:14.869Z,65.11
2022-09-06T03:18:16.063Z,64.81
2022-09-06T03:19:14.981Z,65.01
2022-09-06T03:20:14.913Z,65.01
2022-09-06T03:21:14.823Z,65.11
2022-09-06T03:22:14.797Z,65.11
2022-09-06T03:23:14.787Z,65.01
2022-09-06T03:24:14.860Z,64.90
2022-09-06T03:25:14.857Z,65.01
2022-09-06T03:26:14.790Z,65.01
2022-09-06T03:27:14.725Z,65.01
2022-09-06T03:28:14.755Z,65.01
2022-09-06T03:29:15.513Z,64.90
2022-09-06T03:30:14.715Z,64.90
2022-09-06T03:31:14.755Z,64.81
2022-09-06T03:32:14.695Z,64.81
2022-09-06T03:33:14.662Z,64.81
2022-09-06T03:34:14.651Z,64.90
2022-09-06T03:35:14.620Z,64.90
2022-09-06T03:36:14.625Z,64.81
2022-09-06T03:37:15.768Z,64.81
2022-09-06T03:38:14.769Z,64.81
2022-09-06T03:39:14.620Z,64.81
2022-09-06T03:40:14.570Z,64.70
2022-09-06T03:41:14.567Z,64.50
2022-09-06T03:42:14.559Z,64.70
2022-09-06T03:43:14.548Z,64.70
2022-09-06T03:44:14.504Z,64.81
2022-09-06T03:45:14.488Z,64.61
2022-09-06T03:46:14.627Z,64.73
2022-09-06T03:47:18.782Z,64.94
2022-09-06T03:48:15.451Z,64.73
2022-09-06T03:49:14.508Z,64.64
2022-09-06T03:50:14.436Z,64.64
2022-09-06T03:51:14.408Z,64.64
2022-09-06T03:52:14.397Z,64.53
2022-09-06T03:53:14.470Z,64.53
2022-09-06T03:54:14.547Z,64.53
2022-09-06T03:55:14.350Z,64.64
2022-09-06T03:56:14.560Z,64.73
2022-09-06T03:57:14.363Z,64.73
2022-09-06T03:58:14.356Z,64.53
2022-09-06T03:59:14.296Z,64.53
2022-09-06T04:00:14.376Z,64.43
2022-09-06T04:01:14.388Z,64.43
2022-09-06T04:02:14.358Z,64.33
2022-09-06T04:03:14.620Z,64.33
2022-09-06T04:04:14.261Z,64.23
2022-09-06T04:05:14.236Z,64.23
2022-09-06T04:06:14.236Z,64.13
2022-09-06T04:07:14.208Z,64.13
2022-09-06T04:08:14.200Z,64.03
2022-09-06T04:09:14.264Z,63.93
2022-09-06T04:10:14.206Z,64.03
2022-09-06T04:11:14.164Z,63.82
2022-09-06T04:12:14.168Z,63.82
2022-09-06T04:13:14.164Z,63.93
2022-09-06T04:14:14.124Z,63.93
2022-09-06T04:15:14.251Z,63.82
2022-09-06T04:16:14.148Z,63.82
2022-09-06T04:17:14.070Z,63.82
2022-09-06T04:18:14.083Z,63.82
2022-09-06T04:19:14.079Z,63.93
2022-09-06T04:20:14.068Z,63.62
2022-09-06T04:21:14.075Z,63.73
2022-09-06T04:22:14.051Z,63.52
2022-09-06T04:23:14.009Z,63.42
2022-09-06T04:24:14.094Z,63.52
2022-09-06T04:25:13.987Z,63.62
2022-09-06T04:26:13.972Z,63.42
2022-09-06T04:27:13.958Z,63.42
2022-09-06T04:28:13.923Z,63.22
2022-09-06T04:29:14.010Z,63.22
2022-09-06T04:30:14.020Z,63.22
2022-09-06T04:31:13.882Z,63.22
2022-09-06T04:32:13.883Z,63.02
2022-09-06T04:33:13.863Z,63.22
2022-09-06T04:34:13.875Z,63.12
2022-09-06T04:35:13.916Z,63.22
2022-09-06T04:36:13.832Z,63.22
2022-09-06T04:37:13.836Z,63.02
2022-09-06T04:38:13.847Z,63.02
2022-09-06T04:39:13.828Z,63.12
2022-09-06T04:40:13.848Z,62.92
2022-09-06T04:41:13.809Z,63.02
2022-09-06T04:42:13.787Z,62.92
2022-09-06T04:43:13.756Z,62.92
2022-09-06T04:44:13.926Z,62.92
2022-09-06T04:45:13.715Z,62.92
2022-09-06T04:46:14.553Z,62.82
2022-09-06T04:47:14.689Z,62.82
2022-09-06T04:48:13.833Z,62.85
2022-09-06T04:49:13.741Z,62.82
2022-09-06T04:50:13.723Z,62.85
2022-09-06T04:51:13.713Z,62.95
2022-09-06T04:52:13.701Z,62.85
2022-09-06T04:53:13.620Z,62.74
2022-09-06T04:54:13.633Z,62.85
2022-09-06T04:55:13.650Z,62.85
2022-09-06T04:56:13.633Z,62.85
2022-09-06T04:57:14.750Z,62.74
2022-09-06T04:58:13.561Z,62.64
2022-09-06T04:59:13.632Z,62.54
2022-09-06T05:00:13.543Z,62.74
2022-09-06T05:01:34.645Z,62.64
2022-09-06T05:02:13.534Z,62.64
2022-09-06T05:03:14.945Z,62.74
2022-09-06T05:04:13.613Z,62.44
2022-09-06T05:05:13.457Z,62.54
2022-09-06T05:06:13.483Z,62.54
2022-09-06T05:07:13.473Z,62.54
2022-09-06T05:08:13.417Z,62.34
2022-09-06T05:09:13.415Z,62.24
2022-09-06T05:10:13.395Z,62.44
2022-09-06T05:11:14.424Z,62.44
2022-09-06T05:12:14.351Z,62.14
2022-09-06T05:13:13.576Z,62.24
2022-09-06T05:14:13.338Z,62.14
2022-09-06T05:15:13.476Z,62.14
2022-09-06T05:16:13.574Z,62.14
2022-09-06T05:17:13.343Z,62.04
2022-09-06T05:18:16.136Z,62.04
2022-09-06T05:19:13.309Z,62.04
2022-09-06T05:20:13.386Z,62.04
2022-09-06T05:21:13.399Z,61.94
2022-09-06T05:22:13.258Z,61.94
2022-09-06T05:23:13.248Z,62.14
2022-09-06T05:24:13.602Z,61.94
2022-09-06T05:25:14.172Z,61.94
2022-09-06T05:26:13.301Z,62.04
2022-09-06T05:27:13.213Z,61.94
2022-09-06T05:28:13.181Z,61.94
2022-09-06T05:29:13.204Z,61.94
2022-09-06T05:30:13.582Z,61.73
2022-09-06T05:31:13.373Z,61.83
2022-09-06T05:32:13.099Z,61.83
2022-09-06T05:33:13.101Z,61.83
2022-09-06T05:34:13.080Z,61.83
2022-09-06T05:35:13.593Z,61.83
2022-09-06T05:36:13.130Z,61.63
2022-09-06T05:37:13.091Z,61.63
2022-09-06T05:38:13.144Z,61.53
2022-09-06T05:39:13.504Z,61.53
2022-09-06T05:40:13.603Z,61.63
2022-09-06T05:41:13.568Z,61.53
2022-09-06T05:42:17.165Z,61.53
2022-09-06T05:43:14.156Z,61.53
2022-09-06T05:44:12.985Z,61.53
2022-09-06T05:45:12.927Z,61.53
2022-09-06T05:46:12.983Z,61.43
2022-09-06T05:47:12.941Z,61.43
2022-09-06T05:48:13.948Z,61.43
2022-09-06T05:49:12.907Z,61.43
2022-09-06T05:50:13.760Z,61.43
2022-09-06T05:51:13.028Z,61.53
2022-09-06T05:52:12.854Z,61.43
2022-09-06T05:53:12.848Z,61.43
2022-09-06T05:54:12.892Z,61.43
2022-09-06T05:55:12.894Z,61.23
2022-09-06T05:56:12.790Z,61.33
2022-09-06T05:57:12.800Z,61.23
2022-09-06T05:58:12.996Z,61.13
2022-09-06T05:59:12.931Z,61.03
2022-09-06T06:00:12.839Z,60.93
2022-09-06T06:01:13.767Z,60.82
2022-09-06T06:02:14.731Z,60.72
2022-09-06T06:03:12.735Z,60.69
2022-09-06T06:04:12.818Z,60.60
2022-09-06T06:05:12.887Z,60.60
2022-09-06T06:06:12.661Z,60.60
2022-09-06T06:07:12.653Z,60.39
2022-09-06T06:08:12.636Z,60.60
2022-09-06T06:09:12.683Z,60.49
2022-09-06T06:10:12.648Z,60.49
2022-09-06T06:11:12.635Z,60.39
2022-09-06T06:12:12.622Z,60.19
2022-09-06T06:13:13.072Z,59.99
2022-09-06T06:14:12.616Z,59.78
2022-09-06T06:15:12.657Z,59.78
2022-09-06T06:16:12.570Z,59.99
2022-09-06T06:17:12.545Z,59.89
2022-09-06T06:18:13.176Z,59.86
2022-09-06T06:19:12.509Z,59.76
2022-09-06T06:20:12.468Z,59.45
2022-09-06T06:21:13.349Z,59.56
2022-09-06T06:22:12.458Z,59.56
2022-09-06T06:23:12.484Z,59.25
2022-09-06T06:24:12.700Z,59.25
2022-09-06T06:25:13.479Z,58.85
2022-09-06T06:26:12.478Z,59.12
2022-09-06T06:27:12.428Z,58.92
2022-09-06T06:28:12.667Z,58.72
2022-09-06T06:29:12.433Z,58.72
2022-09-06T06:30:17.764Z,58.52
2022-09-06T06:31:13.552Z,58.62
2022-09-06T06:32:13.309Z,58.42
2022-09-06T06:33:12.360Z,58.29
2022-09-06T06:34:12.321Z,58.22
2022-09-06T06:35:12.320Z,58.59
2022-09-06T06:36:12.279Z,58.29
2022-09-06T06:37:12.525Z,57.89
2022-09-06T06:38:13.125Z,57.78
2022-09-06T06:39:12.245Z,57.56
2022-09-06T06:40:13.172Z,57.35
2022-09-06T06:41:13.477Z,57.45
2022-09-06T06:42:12.553Z,57.35
2022-09-06T06:43:12.203Z,57.35
2022-09-06T06:44:12.611Z,56.95
2022-09-06T06:45:12.225Z,56.95
2022-09-06T06:46:12.273Z,57.08
2022-09-06T06:47:12.141Z,57.45
2022-09-06T06:48:12.546Z,57.15
2022-09-06T06:49:12.166Z,57.25
2022-09-06T06:50:13.124Z,57.15
2022-09-06T06:51:12.755Z,56.85
2022-09-06T06:52:12.925Z,57.25
2022-09-06T06:53:12.129Z,57.15
2022-09-06T06:54:13.243Z,56.65
2022-09-06T06:55:13.148Z,56.75
2022-09-06T06:56:13.052Z,56.95
2022-09-06T06:57:12.113Z,56.62
2022-09-06T06:58:12.291Z,56.42
2022-09-06T06:59:11.970Z,56.62
2022-09-06T07:00:12.091Z,56.52
2022-09-06T07:01:13.215Z,56.32
2022-09-06T07:02:13.113Z,56.32
2022-09-06T07:03:12.259Z,56.40
2022-09-06T07:04:11.994Z,55.89
2022-09-06T07:06:13.275Z,55.29
2022-09-06T07:08:13.075Z,55.59
2022-09-06T07:09:12.502Z,55.66
2022-09-06T07:11:12.870Z,55.06
2022-09-06T07:12:11.804Z,55.16
2022-09-06T07:13:11.798Z,55.08
2022-09-06T07:14:11.848Z,55.08
2022-09-06T07:15:11.803Z,55.59
2022-09-06T07:16:12.026Z,55.16
2022-09-06T07:17:11.776Z,55.49
2022-09-06T07:18:11.712Z,55.46
2022-09-06T07:20:13.180Z,54.83
2022-09-06T07:22:13.765Z,54.73
2022-09-06T07:24:12.936Z,54.43
2022-09-06T07:25:12.679Z,54.40
2022-09-06T07:26:11.697Z,54.23
2022-09-06T07:28:12.639Z,54.33
2022-09-06T07:29:12.441Z,54.43
2022-09-06T07:30:12.349Z,54.73
2022-09-06T07:32:12.774Z,54.73
2022-09-06T07:33:11.839Z,54.46
2022-09-06T07:34:12.481Z,54.96
2022-09-06T07:35:12.451Z,54.75
2022-09-06T07:36:11.530Z,55.16
2022-09-06T07:37:11.509Z,54.86
2022-09-06T07:38:12.598Z,55.06
2022-09-06T07:39:11.827Z,55.16
2022-09-06T07:40:11.611Z,55.26
2022-09-06T07:41:11.448Z,55.06
2022-09-06T07:42:11.506Z,55.19
2022-09-06T07:43:11.580Z,55.39
2022-09-06T07:44:12.541Z,55.69
2022-09-06T07:45:12.374Z,55.79
2022-09-06T07:46:11.403Z,55.79
2022-09-06T07:48:12.360Z,55.79
2022-09-06T07:49:11.356Z,55.89
2022-09-06T07:51:12.331Z,55.59
2022-09-06T07:53:15.253Z,55.66
2022-09-06T07:54:29.772Z,55.26
2022-09-06T07:55:13.016Z,55.49
2022-09-06T07:56:12.409Z,55.66
2022-09-06T07:57:11.253Z,55.46
2022-09-06T07:58:11.308Z,55.56
2022-09-06T07:59:11.281Z,55.36
2022-09-06T08:00:11.199Z,55.74
2022-09-06T08:01:11.242Z,55.13
2022-09-06T08:02:12.377Z,55.43
2022-09-06T08:03:11.160Z,55.54
2022-09-06T08:04:12.161Z,55.23
2022-09-06T08:06:12.147Z,55.03
2022-09-06T08:09:13.215Z,54.63
2022-09-06T08:10:11.113Z,55.33
2022-09-06T08:11:12.055Z,55.43
2022-09-06T08:12:11.054Z,55.03
2022-09-06T08:13:11.796Z,54.93
2022-09-06T08:14:11.265Z,54.93
2022-09-06T08:15:11.672Z,54.80
2022-09-06T08:16:11.170Z,55.21
2022-09-06T08:17:11.234Z,54.30
2022-09-06T08:18:10.969Z,54.50
2022-09-06T08:19:11.025Z,54.80
2022-09-06T08:20:10.958Z,54.50
2022-09-06T08:21:12.699Z,54.80
2022-09-06T08:22:10.896Z,54.60
2022-09-06T08:23:10.910Z,54.80
2022-09-06T08:24:11.768Z,54.91
2022-09-06T08:25:10.927Z,54.80
2022-09-06T08:26:10.981Z,55.11
2022-09-06T08:27:10.820Z,55.51
2022-09-06T08:28:10.838Z,54.88
2022-09-06T08:29:10.958Z,54.58
2022-09-06T08:30:10.880Z,54.68
2022-09-06T08:31:11.701Z,54.48
2022-09-06T08:32:10.777Z,54.38
2022-09-06T08:33:10.748Z,54.08
2022-09-06T08:34:10.749Z,54.17
2022-09-06T08:35:11.751Z,53.77
2022-09-06T08:36:10.755Z,54.28
2022-09-06T08:37:10.866Z,54.17
2022-09-06T08:38:10.661Z,54.68
2022-09-06T08:39:10.703Z,54.71
2022-09-06T08:40:10.836Z,54.71
2022-09-06T08:41:10.844Z,54.80
2022-09-06T08:42:11.585Z,55.11
2022-09-06T08:43:10.653Z,55.23
2022-09-06T08:45:11.737Z,55.83
2022-09-06T08:46:10.640Z,56.04
2022-09-06T08:47:11.620Z,56.14
2022-09-06T08:48:10.599Z,56.44
2022-09-06T08:49:10.577Z,56.54
2022-09-06T08:50:11.321Z,56.34
2022-09-06T08:51:11.739Z,56.34
2022-09-06T08:52:10.637Z,56.34
2022-09-06T08:53:17.143Z,56.04
2022-09-06T08:54:11.576Z,56.14
2022-09-06T08:55:10.530Z,56.21
2022-09-06T08:56:10.628Z,56.01
2022-09-06T08:57:10.478Z,56.31
2022-09-06T08:58:11.581Z,56.71
2022-09-06T08:59:10.439Z,56.11
2022-09-06T09:00:11.174Z,56.01
2022-09-06T09:01:10.604Z,55.91
2022-09-06T09:02:10.656Z,55.81
2022-09-06T09:03:15.900Z,56.62
2022-09-06T09:04:12.068Z,55.51
2022-09-06T09:05:10.375Z,56.41
2022-09-06T09:06:10.517Z,56.51
2022-09-06T09:07:10.532Z,56.24
2022-09-06T09:08:10.652Z,55.83
2022-09-06T09:09:10.354Z,56.54
2022-09-06T09:10:12.214Z,56.64
2022-09-06T09:11:10.303Z,56.84
2022-09-06T09:12:11.262Z,56.84
2022-09-06T09:13:10.230Z,56.64
2022-09-06T09:14:10.223Z,56.84
2022-09-06T09:15:10.351Z,56.64
2022-09-06T09:16:10.281Z,56.95
2022-09-06T09:17:10.223Z,56.95
2022-09-06T09:18:10.686Z,57.45
2022-09-06T09:19:11.099Z,57.24
2022-09-06T09:20:10.323Z,56.74
2022-09-06T09:21:10.153Z,56.74
2022-09-06T09:22:10.259Z,57.04
2022-09-06T09:23:10.655Z,57.04
2022-09-06T09:24:10.636Z,56.95
2022-09-06T09:25:10.156Z,57.35
2022-09-06T09:26:10.201Z,57.65
2022-09-06T09:27:10.387Z,57.35
2022-09-06T09:28:11.607Z,57.02
2022-09-06T09:29:11.168Z,56.92
2022-09-06T09:31:11.114Z,57.32
2022-09-06T09:32:10.068Z,57.72
2022-09-06T09:33:10.060Z,56.62
2022-09-06T09:34:11.449Z,56.71
2022-09-06T09:35:11.099Z,56.38
2022-09-06T09:36:11.009Z,56.59
2022-09-06T09:38:12.313Z,56.59
2022-09-06T09:39:09.936Z,56.21
2022-09-06T09:40:11.155Z,56.01
2022-09-06T09:41:10.085Z,56.14
2022-09-06T09:42:11.008Z,56.82
2022-09-06T09:43:09.846Z,56.82
2022-09-06T09:44:09.841Z,57.12
2022-09-06T09:45:09.843Z,57.22
2022-09-06T09:46:09.903Z,56.74
2022-09-06T09:47:10.532Z,56.54
2022-09-06T09:48:09.840Z,57.24
2022-09-06T09:49:09.780Z,57.85
2022-09-06T09:50:09.788Z,57.04
2022-09-06T09:51:09.762Z,57.15
2022-09-06T09:52:09.775Z,57.35
2022-09-06T09:53:09.783Z,59.26
2022-09-06T09:54:09.736Z,57.45
2022-09-06T09:55:10.721Z,59.16
2022-09-06T09:56:09.679Z,57.85
2022-09-06T09:57:11.891Z,57.55
2022-09-06T09:58:09.732Z,57.55
2022-09-06T09:59:10.495Z,58.15
2022-09-06T10:00:09.641Z,57.65
2022-09-06T10:01:09.653Z,57.82
2022-09-06T10:02:10.556Z,56.62
2022-09-06T10:03:09.900Z,56.21
2022-09-06T10:05:10.718Z,55.61
2022-09-06T10:07:10.843Z,55.71
2022-09-06T10:08:09.559Z,55.88
2022-09-06T10:09:09.698Z,55.48
2022-09-06T10:10:10.305Z,55.28
2022-09-06T10:11:09.512Z,55.28
2022-09-06T10:12:09.732Z,55.38
2022-09-06T10:13:09.654Z,54.78
2022-09-06T10:14:09.444Z,55.38
2022-09-06T10:15:09.617Z,55.68
2022-09-06T10:16:09.475Z,55.48
2022-09-06T10:17:09.615Z,55.35
2022-09-06T10:18:10.555Z,54.83
2022-09-06T10:19:09.675Z,54.33
2022-09-06T10:20:09.479Z,54.53
2022-09-06T10:21:10.265Z,54.13
2022-09-06T10:22:09.470Z,53.80
2022-09-06T10:23:09.346Z,53.59
2022-09-06T10:25:10.483Z,53.57
2022-09-06T10:26:10.301Z,53.67
2022-09-06T10:27:09.515Z,53.95
2022-09-06T10:28:11.817Z,53.42
2022-09-06T10:29:09.277Z,52.82
2022-09-06T10:30:09.242Z,52.59
2022-09-06T10:31:09.449Z,52.39
2022-09-06T10:32:09.201Z,52.77
2022-09-06T10:33:09.232Z,52.64
2022-09-06T10:34:09.383Z,51.22
2022-09-06T10:35:09.218Z,51.14
2022-09-06T10:36:09.204Z,50.62
2022-09-06T10:37:09.193Z,49.91
2022-09-06T10:38:09.152Z,50.12
2022-09-06T10:39:09.202Z,50.34
2022-09-06T10:40:09.172Z,50.64
2022-09-06T10:41:09.154Z,50.52
2022-09-06T10:42:09.090Z,50.12
2022-09-06T10:43:10.207Z,50.09
2022-09-06T10:44:09.074Z,49.79
2022-09-06T10:45:09.075Z,50.09
2022-09-06T10:46:09.962Z,49.82
2022-09-06T10:47:09.099Z,50.39
2022-09-06T10:48:13.924Z,49.91
2022-09-06T10:49:10.106Z,49.90
2022-09-06T10:50:09.035Z,49.67
2022-09-06T10:51:09.949Z,49.99
2022-09-06T10:52:09.240Z,50.07
2022-09-06T10:53:09.068Z,49.55
2022-09-06T10:54:10.460Z,49.25
2022-09-06T10:55:08.912Z,49.77
2022-09-06T10:56:08.884Z,50.37
2022-09-06T10:58:17.658Z,50.20
2022-09-06T11:00:09.863Z,49.87
2022-09-06T11:01:09.087Z,50.89
2022-09-06T11:02:08.959Z,50.37
2022-09-06T11:04:12.912Z,50.27
2022-09-06T11:06:09.778Z,50.04
2022-09-06T11:07:09.742Z,49.74
2022-09-06T11:09:09.870Z,49.35
2022-09-06T11:10:08.852Z,49.55
2022-09-06T11:11:09.401Z,49.55
2022-09-06T11:12:08.803Z,49.55
2022-09-06T11:13:08.702Z,50.35
2022-09-06T11:14:08.644Z,49.62
2022-09-06T11:15:08.716Z,49.05
2022-09-06T11:16:08.789Z,49.25
2022-09-06T11:17:08.676Z,49.55
2022-09-06T11:18:08.628Z,49.05
2022-09-06T11:19:08.650Z,49.32
2022-09-06T11:20:08.603Z,49.32
2022-09-06T11:21:09.628Z,49.52
2022-09-06T11:22:08.645Z,49.30
2022-09-06T11:23:09.436Z,48.90
2022-09-06T11:24:08.549Z,49.30
2022-09-06T11:25:09.759Z,48.80
2022-09-06T11:26:08.711Z,49.40
2022-09-06T11:27:08.866Z,49.12
2022-09-06T11:28:08.517Z,49.82
2022-09-06T11:29:08.859Z,49.02
2022-09-06T11:30:08.892Z,49.42
2022-09-06T11:31:08.649Z,49.12
2022-09-06T11:32:16.211Z,49.20
2022-09-06T11:33:09.443Z,49.70
2022-09-06T11:34:09.407Z,48.88
2022-09-06T11:35:08.491Z,48.58
2022-09-06T11:36:08.512Z,48.60
2022-09-06T11:37:08.371Z,49.42
2022-09-06T11:38:08.375Z,49.72
2022-09-06T11:39:08.387Z,50.12
2022-09-06T11:41:12.076Z,49.40
2022-09-06T11:42:09.148Z,49.10
2022-09-06T11:43:08.286Z,49.30
2022-09-06T11:44:08.716Z,49.50
2022-09-06T11:45:08.397Z,49.00
2022-09-06T11:46:08.401Z,49.62
2022-09-06T11:47:08.276Z,49.52
2022-09-06T11:48:08.348Z,50.45
2022-09-06T11:49:09.310Z,50.15
2022-09-06T11:50:08.224Z,50.35
2022-09-06T11:51:08.346Z,50.42
2022-09-06T11:52:09.209Z,50.00
2022-09-06T11:53:09.119Z,50.00
2022-09-06T11:54:09.062Z,50.00
2022-09-06T11:55:08.358Z,49.80
2022-09-06T11:56:08.224Z,50.10
2022-09-06T11:57:08.100Z,49.70
2022-09-06T11:58:08.211Z,50.60
2022-09-06T11:59:08.113Z,50.00
2022-09-06T12:00:08.080Z,50.00
2022-09-06T12:01:08.202Z,50.22
2022-09-06T12:02:08.075Z,50.02
2022-09-06T12:04:10.007Z,50.45
2022-09-06T12:05:08.022Z,50.97
2022-09-06T12:06:08.428Z,51.59
2022-09-06T12:07:08.390Z,51.69
2022-09-06T12:08:08.057Z,51.50
2022-09-06T12:09:07.969Z,51.17
2022-09-06T12:10:09.015Z,51.04
2022-09-06T12:11:07.956Z,50.72
2022-09-06T12:12:11.399Z,50.49
2022-09-06T12:13:07.951Z,49.68
2022-09-06T12:14:07.901Z,49.55
2022-09-06T12:15:07.916Z,48.83
2022-09-06T12:16:07.926Z,48.71
2022-09-06T12:17:07.900Z,48.08
2022-09-06T12:18:07.853Z,48.19
2022-09-06T12:19:07.850Z,47.96
2022-09-06T12:20:07.854Z,47.05
2022-09-06T12:21:07.803Z,46.72
2022-09-06T12:22:07.801Z,46.20
2022-09-06T12:23:07.803Z,46.88
2022-09-06T12:24:07.783Z,46.31
2022-09-06T12:25:08.309Z,46.75
2022-09-06T12:26:07.732Z,47.17
2022-09-06T12:27:07.796Z,48.28
2022-09-06T12:28:07.719Z,47.77
2022-09-06T12:29:07.711Z,47.07
2022-09-06T12:30:08.535Z,47.59
2022-09-06T12:31:07.882Z,48.08
2022-09-06T12:32:07.667Z,48.26
2022-09-06T12:33:07.669Z,47.84
2022-09-06T12:34:07.666Z,47.64
2022-09-06T12:36:08.649Z,47.37
2022-09-06T12:37:07.654Z,47.47
2022-09-06T12:38:07.692Z,47.66
2022-09-06T12:39:07.572Z,47.86
2022-09-06T12:40:07.890Z,47.86
2022-09-06T12:41:08.456Z,48.56
2022-09-06T12:42:07.579Z,48.19
2022-09-06T12:43:07.551Z,48.41
2022-09-06T12:44:07.835Z,48.80
2022-09-06T12:45:07.579Z,48.79
2022-09-06T12:46:07.591Z,48.98
2022-09-06T12:47:07.504Z,48.88
2022-09-06T12:48:08.442Z,49.18
2022-09-06T12:49:07.860Z,49.28
2022-09-06T12:50:07.455Z,49.48
2022-09-06T12:51:07.461Z,49.28
2022-09-06T12:52:07.410Z,49.58
2022-09-06T12:53:07.524Z,49.18
2022-09-06T12:54:07.475Z,50.27
2022-09-06T12:55:08.285Z,50.08
2022-09-06T12:56:09.307Z,49.88
2022-09-06T12:57:07.364Z,50.18
2022-09-06T12:58:07.407Z,49.46
2022-09-06T12:59:07.355Z,49.16
2022-09-06T13:00:07.308Z,49.26
2022-09-06T13:01:07.509Z,48.86
2022-09-06T13:02:07.395Z,49.38
2022-09-06T13:03:07.309Z,49.28
2022-09-06T13:04:07.271Z,49.38
2022-09-06T13:05:07.298Z,50.38
2022-09-06T13:06:07.246Z,50.48
2022-09-06T13:07:07.229Z,50.18
2022-09-06T13:08:07.213Z,50.27
2022-09-06T13:09:07.432Z,49.55
2022-09-06T13:10:07.209Z,49.85
2022-09-06T13:11:07.179Z,50.05
2022-09-06T13:12:07.188Z,50.13
2022-09-06T13:13:07.123Z,49.16
2022-09-06T13:14:10.796Z,49.33
2022-09-06T13:15:08.153Z,50.43
2022-09-06T13:16:07.335Z,49.53
2022-09-06T13:17:07.083Z,49.61
2022-09-06T13:18:07.095Z,48.61
2022-09-06T13:19:07.064Z,48.61
2022-09-06T13:20:07.104Z,49.11